createdAt,value
2018-05-02T00:00:16.446Z,90.40
2018-05-02T00:02:43.996Z,90.50
2018-05-02T00:05:11.575Z,90.70
2018-05-02T00:07:39.127Z,90.50
2018-05-02T00:10:06.672Z,90.40
2018-05-02T00:12:34.251Z,90.70
2018-05-02T00:15:01.815Z,90.50
2018-05-02T00:17:29.360Z,90.40
2018-05-02T00:19:56.969Z,90.60
2018-05-02T00:22:24.518Z,90.60
2018-05-02T00:24:52.076Z,90.40
2018-05-02T00:27:19.668Z,90.40
2018-05-02T00:29:47.981Z,90.40
2018-05-02T00:32:15.554Z,90.40
2018-05-02T00:34:43.149Z,90.40
2018-05-02T00:37:10.700Z,90.60
2018-05-02T00:39:38.242Z,90.70
2018-05-02T00:42:06.183Z,90.70
2018-05-02T00:44:33.733Z,90.70
2018-05-02T00:47:01.283Z,90.70
2018-05-02T00:49:29.629Z,90.90
2018-05-02T00:51:57.176Z,90.90
2018-05-02T00:54:24.729Z,91.20
2018-05-02T00:56:52.315Z,91.30
2018-05-02T00:59:19.874Z,91.30
2018-05-02T01:01:47.416Z,91.30
2018-05-02T01:04:15.012Z,91.30
2018-05-02T01:06:42.553Z,91.30
2018-05-02T01:09:10.102Z,91.30
2018-05-02T01:11:37.690Z,91.40
2018-05-02T01:14:05.235Z,91.50
2018-05-02T01:16:32.792Z,91.20
2018-05-02T01:19:00.371Z,91.00
2018-05-02T01:21:27.915Z,91.10
2018-05-02T01:23:55.459Z,91.10
2018-05-02T01:26:23.067Z,91.10
2018-05-02T01:28:51.382Z,91.10
2018-05-02T01:31:18.930Z,91.10
2018-05-02T01:33:46.513Z,91.10
2018-05-02T01:36:14.114Z,91.00
2018-05-02T01:38:41.664Z,91.10
2018-05-02T01:41:09.247Z,91.30
2018-05-02T01:43:36.803Z,91.20
2018-05-02T01:46:04.348Z,91.30
2018-05-02T01:48:32.507Z,91.20
2018-05-02T01:51:00.058Z,91.50
2018-05-02T01:53:27.609Z,91.20
2018-05-02T01:55:55.195Z,91.00
2018-05-02T01:58:22.737Z,90.90
2018-05-02T02:00:50.284Z,91.00
2018-05-02T02:03:17.872Z,91.00
2018-05-02T02:05:45.421Z,91.10
2018-05-02T02:08:12.965Z,91.00
2018-05-02T02:10:41.068Z,91.00
2018-05-02T02:13:08.614Z,91.10
2018-05-02T02:15:36.161Z,91.20
2018-05-02T02:18:03.752Z,91.30
2018-05-02T02:20:31.292Z,91.40
2018-05-02T02:22:58.844Z,91.50
2018-05-02T02:25:26.414Z,91.40
2018-05-02T02:27:53.968Z,91.50
2018-05-02T02:30:21.515Z,91.50
2018-05-02T02:32:50.444Z,91.60
2018-05-02T02:35:17.997Z,91.50
2018-05-02T02:37:45.542Z,91.60
2018-05-02T02:40:13.126Z,91.60
2018-05-02T02:42:40.679Z,91.50
2018-05-02T02:45:08.221Z,91.60
2018-05-02T02:47:36.121Z,91.60
2018-05-02T02:50:03.677Z,91.70
2018-05-02T02:52:31.216Z,91.80
2018-05-02T02:54:58.809Z,91.80
2018-05-02T02:57:26.360Z,91.80
2018-05-02T02:59:53.913Z,92.00
2018-05-02T03:02:21.502Z,92.00
2018-05-02T03:04:49.052Z,92.00
2018-05-02T03:07:16.605Z,92.20
2018-05-02T03:09:44.196Z,92.20
2018-05-02T03:12:11.741Z,92.20
2018-05-02T03:14:39.289Z,92.20
2018-05-02T03:17:06.902Z,92.40
2018-05-02T03:19:35.220Z,92.60
2018-05-02T03:22:02.775Z,92.20
2018-05-02T03:24:30.356Z,92.20
2018-05-02T03:26:57.921Z,92.20
2018-05-02T03:29:25.464Z,92.30
2018-05-02T03:31:53.049Z,92.40
2018-05-02T03:34:20.606Z,92.70
2018-05-02T03:36:48.167Z,93.00
2018-05-02T03:39:16.109Z,93.70
2018-05-02T03:41:43.667Z,93.50
2018-05-02T03:44:11.217Z,93.40
2018-05-02T03:46:38.809Z,93.50
2018-05-02T03:49:06.368Z,93.50
2018-05-02T03:51:33.920Z,93.90
2018-05-02T03:54:01.512Z,93.80
2018-05-02T03:56:29.072Z,93.90
2018-05-02T03:58:56.624Z,93.90
2018-05-02T04:02:01.561Z,93.90
2018-05-02T04:05:06.247Z,94.10
2018-05-02T04:07:33.828Z,93.90
2018-05-02T04:10:01.390Z,93.90
2018-05-02T04:12:28.952Z,94.00
2018-05-02T04:14:56.543Z,93.90
2018-05-02T04:17:24.083Z,93.80
2018-05-02T04:19:51.633Z,93.90
2018-05-02T04:22:19.843Z,94.10
2018-05-02T04:24:47.398Z,94.00
2018-05-02T04:27:14.954Z,94.10
2018-05-02T04:29:42.538Z,94.10
2018-05-02T04:32:10.100Z,94.20
2018-05-02T04:34:37.660Z,94.20
2018-05-02T04:37:05.255Z,94.40
2018-05-02T04:39:33.576Z,94.00
2018-05-02T04:42:01.126Z,94.00
2018-05-02T04:44:28.735Z,94.20
2018-05-02T04:46:56.283Z,94.30
2018-05-02T04:49:23.837Z,94.30
2018-05-02T04:51:51.429Z,94.40
2018-05-02T04:54:18.982Z,94.10
2018-05-02T04:56:46.534Z,93.80
2018-05-02T04:59:14.124Z,93.70
2018-05-02T05:01:42.436Z,93.50
2018-05-02T05:04:10.003Z,93.40
2018-05-02T05:06:37.640Z,93.40
2018-05-02T05:09:05.193Z,93.40
2018-05-02T05:11:32.751Z,93.40
2018-05-02T05:14:00.355Z,93.30
2018-05-02T05:16:27.908Z,93.40
2018-05-02T05:18:55.494Z,93.50
2018-05-02T05:21:23.040Z,93.50
2018-05-02T05:23:50.589Z,93.40
2018-05-02T05:26:18.148Z,93.50
2018-05-02T05:28:46.334Z,93.70
2018-05-02T05:31:13.883Z,93.70
2018-05-02T05:33:41.436Z,93.80
2018-05-02T05:36:09.756Z,93.70
2018-05-02T05:38:37.317Z,93.80
2018-05-02T05:41:04.871Z,93.80
2018-05-02T05:43:32.486Z,93.90
2018-05-02T05:46:00.791Z,93.20
2018-05-02T05:48:28.343Z,93.20
2018-05-02T05:50:55.943Z,93.00
2018-05-02T05:53:23.497Z,92.90
2018-05-02T05:55:51.050Z,92.90
2018-05-02T05:58:19.217Z,93.00
2018-05-02T06:00:46.835Z,92.70
2018-05-02T06:03:14.306Z,92.70
2018-05-02T06:05:41.952Z,92.70
2018-05-02T06:08:10.276Z,92.90
2018-05-02T06:10:37.826Z,92.80
2018-05-02T06:13:06.018Z,92.70
2018-05-02T06:15:33.579Z,92.70
2018-05-02T06:18:01.133Z,92.80
2018-05-02T06:20:28.774Z,92.70
2018-05-02T06:22:56.332Z,92.60
2018-05-02T06:25:23.882Z,92.40
2018-05-02T06:27:52.620Z,92.40
2018-05-02T06:30:20.186Z,92.40
2018-05-02T06:32:47.740Z,92.40
2018-05-02T06:35:16.223Z,92.50
2018-05-02T06:37:43.886Z,92.50
2018-05-02T06:40:11.324Z,92.50
2018-05-02T06:42:38.918Z,92.60
2018-05-02T06:45:06.470Z,92.60
2018-05-02T06:47:34.027Z,92.50
2018-05-02T06:50:01.682Z,92.30
2018-05-02T06:52:29.225Z,92.30
2018-05-02T06:54:57.827Z,92.30
2018-05-02T06:57:26.643Z,92.30
2018-05-02T06:59:54.190Z,92.30
2018-05-02T07:02:21.742Z,92.50
2018-05-02T07:04:49.382Z,92.30
2018-05-02T07:07:16.951Z,92.50
2018-05-02T07:09:44.482Z,92.50
2018-05-02T07:12:12.850Z,92.40
2018-05-02T07:14:40.395Z,92.40
2018-05-02T07:17:07.945Z,92.40
2018-05-02T07:19:35.593Z,92.40
2018-05-02T07:22:03.132Z,92.10
2018-05-02T07:24:30.683Z,92.00
2018-05-02T07:26:58.794Z,91.70
2018-05-02T07:29:26.350Z,91.50
2018-05-02T07:31:53.901Z,91.40
2018-05-02T07:34:21.757Z,91.40
2018-05-02T07:36:49.304Z,91.30
2018-05-02T07:39:16.850Z,91.00
2018-05-02T07:41:45.214Z,90.90
2018-05-02T07:44:12.771Z,90.90
2018-05-02T07:46:40.326Z,90.80
2018-05-02T07:49:07.931Z,90.60
2018-05-02T07:51:35.477Z,90.80
2018-05-02T07:54:03.017Z,90.60
2018-05-02T07:56:30.640Z,90.40
2018-05-02T07:58:58.174Z,90.10
2018-05-02T08:01:25.727Z,89.70
2018-05-02T08:03:53.330Z,89.50
2018-05-02T08:06:20.880Z,89.60
2018-05-02T08:08:48.431Z,89.70
2018-05-02T08:11:16.028Z,89.40
2018-05-02T08:13:43.587Z,89.10
2018-05-02T08:16:11.148Z,89.20
2018-05-02T08:18:39.197Z,89.40
2018-05-02T08:21:06.737Z,89.30
2018-05-02T08:23:34.279Z,88.40
2018-05-02T08:26:02.663Z,87.60
2018-05-02T08:28:30.205Z,87.50
2018-05-02T08:30:57.746Z,87.10
2018-05-02T08:33:25.338Z,86.40
2018-05-02T08:35:53.645Z,85.50
2018-05-02T08:38:21.193Z,85.50
2018-05-02T08:40:49.593Z,82.40
2018-05-02T08:43:17.144Z,81.60
2018-05-02T08:45:44.691Z,80.90
2018-05-02T08:48:13.081Z,79.00
2018-05-02T08:50:40.620Z,78.90
2018-05-02T08:53:08.174Z,78.00
2018-05-02T08:55:35.777Z,77.40
2018-05-02T08:58:03.319Z,76.50
2018-05-02T09:00:31.644Z,74.50
2018-05-02T09:03:00.205Z,74.40
2018-05-02T09:05:26.795Z,73.80
2018-05-02T09:07:54.333Z,72.60
2018-05-02T09:10:21.921Z,71.10
2018-05-02T09:12:49.467Z,69.40
2018-05-02T09:15:17.024Z,68.00
2018-05-02T09:17:44.626Z,66.90
2018-05-02T09:20:12.928Z,63.40
2018-05-02T09:22:40.476Z,63.30
2018-05-02T09:25:08.110Z,62.60
2018-05-02T09:27:36.427Z,61.40
2018-05-02T09:30:03.965Z,61.40
2018-05-02T09:32:32.343Z,60.00
2018-05-02T09:35:00.649Z,59.40
2018-05-02T09:37:28.198Z,59.40
2018-05-02T09:39:56.481Z,58.10
2018-05-02T09:42:24.027Z,57.70
2018-05-02T09:44:51.576Z,57.30
2018-05-02T09:47:19.200Z,56.70
2018-05-02T09:49:46.770Z,56.00
2018-05-02T09:52:14.322Z,55.60
2018-05-02T09:54:41.944Z,54.10
2018-05-02T09:57:09.491Z,53.40
2018-05-02T09:59:37.030Z,53.40
2018-05-02T10:02:04.662Z,53.50
2018-05-02T10:04:32.269Z,53.20
2018-05-02T10:07:00.188Z,53.10
2018-05-02T10:09:27.830Z,53.20
2018-05-02T10:11:55.376Z,52.80
2018-05-02T10:14:22.922Z,52.50
2018-05-02T10:16:51.317Z,52.30
2018-05-02T10:19:18.863Z,52.30
2018-05-02T10:21:47.174Z,52.30
2018-05-02T10:24:14.805Z,52.30
2018-05-02T10:26:43.117Z,51.00
2018-05-02T10:29:10.662Z,50.90
2018-05-02T10:31:38.258Z,50.60
2018-05-02T10:34:05.804Z,49.60
2018-05-02T10:36:33.358Z,48.80
2018-05-02T10:39:00.992Z,48.60
2018-05-02T10:41:29.296Z,48.90
2018-05-02T10:43:56.838Z,48.80
2018-05-02T10:46:25.656Z,48.30
2018-05-02T10:48:53.205Z,48.20
2018-05-02T10:51:20.750Z,48.10
2018-05-02T10:53:49.813Z,48.60
2018-05-02T10:56:17.355Z,48.60
2018-05-02T10:58:44.915Z,48.20
2018-05-02T11:01:12.865Z,47.50
2018-05-02T11:03:40.404Z,47.40
2018-05-02T11:06:07.947Z,46.50
2018-05-02T11:08:36.311Z,46.50
2018-05-02T11:11:03.852Z,46.50
2018-05-02T11:13:31.392Z,46.50
2018-05-02T11:15:59.020Z,46.00
2018-05-02T11:18:27.334Z,46.40
2018-05-02T11:20:54.881Z,46.30
2018-05-02T11:23:23.165Z,46.00
2018-05-02T11:25:50.711Z,45.90
2018-05-02T11:28:18.331Z,45.50
2018-05-02T11:30:46.617Z,45.00
2018-05-02T11:33:14.158Z,44.90
2018-05-02T11:35:41.705Z,44.80
2018-05-02T11:38:09.304Z,45.10
2018-05-02T11:40:36.853Z,44.20
2018-05-02T11:43:04.403Z,43.60
2018-05-02T11:45:31.992Z,43.50
2018-05-02T11:47:59.541Z,43.80
2018-05-02T11:50:27.094Z,44.10
2018-05-02T11:52:54.689Z,43.80
2018-05-02T11:55:23.000Z,44.00
2018-05-02T11:57:50.562Z,44.00
2018-05-02T12:00:18.143Z,43.40
2018-05-02T12:02:45.692Z,43.20
2018-05-02T12:05:13.244Z,43.20
2018-05-02T12:07:40.867Z,42.80
2018-05-02T12:10:08.408Z,42.10
2018-05-02T12:12:35.962Z,42.40
2018-05-02T12:15:03.597Z,42.30
2018-05-02T12:17:31.137Z,42.30
2018-05-02T12:19:58.829Z,41.70
2018-05-02T12:22:26.425Z,41.90
2018-05-02T12:24:53.976Z,40.90
2018-05-02T12:27:21.522Z,40.60
2018-05-02T12:29:49.155Z,41.50
2018-05-02T12:32:16.705Z,40.70
2018-05-02T12:34:44.248Z,40.40
2018-05-02T12:37:14.596Z,40.40
2018-05-02T12:39:42.149Z,40.30
2018-05-02T12:42:09.696Z,40.50
2018-05-02T12:44:38.053Z,40.90
2018-05-02T12:47:05.617Z,40.80
2018-05-02T12:49:33.154Z,40.70
2018-05-02T12:52:00.744Z,40.80
2018-05-02T12:54:29.060Z,40.60
2018-05-02T12:56:56.600Z,39.90
2018-05-02T12:59:25.019Z,39.90
2018-05-02T13:01:52.506Z,39.80
2018-05-02T13:04:20.048Z,39.90
2018-05-02T13:06:48.000Z,39.80
2018-05-02T13:09:15.544Z,39.50
2018-05-02T13:11:43.086Z,39.70
2018-05-02T13:14:12.431Z,39.10
2018-05-02T13:16:39.973Z,39.10
2018-05-02T13:19:07.515Z,39.30
2018-05-02T13:21:36.854Z,39.60
2018-05-02T13:24:04.402Z,39.50
2018-05-02T13:26:31.946Z,39.10
2018-05-02T13:28:59.893Z,39.50
2018-05-02T13:31:27.432Z,39.90
2018-05-02T13:33:54.985Z,39.40
2018-05-02T13:36:22.575Z,39.00
2018-05-02T13:38:50.115Z,38.60
2018-05-02T13:41:17.690Z,39.00
2018-05-02T13:43:45.287Z,39.00
2018-05-02T13:46:12.835Z,38.90
2018-05-02T13:48:40.343Z,38.90
2018-05-02T13:51:08.409Z,39.10
2018-05-02T13:53:35.985Z,39.00
2018-05-02T13:56:03.491Z,38.20
2018-05-02T13:58:32.726Z,38.20
2018-05-02T14:01:00.346Z,38.20
2018-05-02T14:03:27.817Z,38.20
2018-05-02T14:05:55.421Z,38.30
2018-05-02T14:08:23.032Z,38.40
2018-05-02T14:10:50.518Z,38.50
2018-05-02T14:13:18.137Z,38.30
2018-05-02T14:15:45.679Z,38.50
2018-05-02T14:18:13.218Z,37.50
2018-05-02T14:20:40.841Z,37.70
2018-05-02T14:23:09.166Z,37.90
2018-05-02T14:25:36.703Z,37.90
2018-05-02T14:28:04.595Z,37.20
2018-05-02T14:30:32.134Z,37.00
2018-05-02T14:33:00.970Z,36.70
2018-05-02T14:35:27.682Z,36.50
2018-05-02T14:37:55.218Z,36.40
2018-05-02T14:40:22.762Z,36.60
2018-05-02T14:42:50.365Z,36.00
2018-05-02T14:45:17.933Z,36.30
2018-05-02T14:47:45.474Z,36.00
2018-05-02T14:50:13.978Z,36.10
2018-05-02T14:52:41.841Z,35.90
2018-05-02T14:55:09.384Z,35.80
2018-05-02T14:57:37.487Z,35.90
2018-05-02T15:00:05.063Z,35.90
2018-05-02T15:02:32.598Z,35.60
2018-05-02T15:05:01.177Z,35.90
2018-05-02T15:07:28.720Z,36.00
2018-05-02T15:09:56.264Z,35.80
2018-05-02T15:12:23.890Z,35.90
2018-05-02T15:14:51.433Z,36.00
2018-05-02T15:17:18.977Z,36.00
2018-05-02T15:19:46.569Z,36.10
2018-05-02T15:22:14.109Z,36.40
2018-05-02T15:24:41.735Z,36.50
2018-05-02T15:27:09.285Z,36.10
2018-05-02T15:29:37.621Z,37.10
2018-05-02T15:32:05.134Z,36.40
2018-05-02T15:34:33.271Z,36.10
2018-05-02T15:37:00.816Z,35.80
2018-05-02T15:39:28.323Z,35.60
2018-05-02T15:41:56.693Z,36.20
2018-05-02T15:44:24.997Z,36.10
2018-05-02T15:46:52.546Z,36.10
2018-05-02T15:49:20.973Z,36.70
2018-05-02T15:51:48.484Z,37.30
2018-05-02T15:54:16.793Z,36.80
2018-05-02T15:56:44.387Z,36.70
2018-05-02T15:59:11.942Z,36.60
2018-05-02T16:01:39.477Z,36.80
2018-05-02T16:04:07.182Z,36.60
2018-05-02T16:06:35.406Z,37.00
2018-05-02T16:09:02.959Z,37.00
2018-05-02T16:11:30.561Z,36.90
2018-05-02T16:13:58.103Z,37.10
2018-05-02T16:16:25.644Z,38.20
2018-05-02T16:18:53.235Z,37.90
2018-05-02T16:21:20.780Z,38.20
2018-05-02T16:23:48.322Z,38.50
2018-05-02T16:26:16.173Z,38.90
2018-05-02T16:28:44.481Z,39.30
2018-05-02T16:31:12.059Z,39.30
2018-05-02T16:33:39.657Z,39.50
2018-05-02T16:36:07.206Z,39.70
2018-05-02T16:38:34.752Z,40.00
2018-05-02T16:41:02.707Z,40.40
2018-05-02T16:43:30.284Z,40.80
2018-05-02T16:45:57.812Z,41.10
2018-05-02T16:48:25.403Z,41.30
2018-05-02T16:50:52.951Z,41.40
2018-05-02T16:53:20.505Z,41.50
2018-05-02T16:55:48.998Z,41.60
2018-05-02T16:58:16.547Z,41.80
2018-05-02T17:00:44.090Z,42.10
2018-05-02T17:03:11.690Z,42.20
2018-05-02T17:05:39.238Z,42.50
2018-05-02T17:08:06.779Z,42.60
2018-05-02T17:10:34.379Z,42.80
2018-05-02T17:13:01.925Z,43.10
2018-05-02T17:15:29.470Z,43.60
2018-05-02T17:17:57.457Z,43.90
2018-05-02T17:20:25.002Z,44.10
2018-05-02T17:22:52.553Z,44.10
2018-05-02T17:25:20.456Z,44.30
2018-05-02T17:27:48.041Z,44.50
2018-05-02T17:30:15.559Z,44.60
2018-05-02T17:32:43.137Z,44.80
2018-05-02T17:35:10.687Z,44.80
2018-05-02T17:37:38.226Z,44.90
2018-05-02T17:40:06.296Z,45.10
2018-05-02T17:42:33.840Z,45.30
2018-05-02T17:45:02.156Z,45.80
2018-05-02T17:47:29.758Z,45.70
2018-05-02T17:49:57.296Z,45.90
2018-05-02T17:52:24.840Z,46.20
2018-05-02T17:54:52.442Z,46.50
2018-05-02T17:57:19.992Z,46.50
2018-05-02T17:59:47.541Z,46.80
2018-05-02T18:02:15.157Z,46.80
2018-05-02T18:04:44.932Z,47.50
2018-05-02T18:07:12.505Z,47.10
2018-05-02T18:09:40.433Z,47.30
2018-05-02T18:12:08.007Z,48.00
2018-05-02T18:14:35.517Z,47.80
2018-05-02T18:17:03.881Z,48.30
2018-05-02T18:19:31.426Z,48.20
2018-05-02T18:21:58.967Z,48.60
2018-05-02T18:24:27.010Z,48.80
2018-05-02T18:26:54.557Z,49.10
2018-05-02T18:29:22.102Z,49.50
2018-05-02T18:31:51.255Z,50.30
2018-05-02T18:34:18.679Z,50.30
2018-05-02T18:36:46.228Z,50.80
2018-05-02T18:39:14.616Z,51.80
2018-05-02T18:41:42.937Z,52.30
2018-05-02T18:44:10.479Z,52.30
2018-05-02T18:46:38.074Z,53.00
2018-05-02T18:49:05.614Z,53.70
2018-05-02T18:51:33.154Z,54.30
2018-05-02T18:54:00.742Z,55.00
2018-05-02T18:56:28.291Z,55.50
2018-05-02T18:58:55.823Z,56.10
2018-05-02T19:01:23.414Z,56.60
2018-05-02T19:03:51.048Z,57.30
2018-05-02T19:06:18.497Z,57.80
2018-05-02T19:08:46.852Z,58.30
2018-05-02T19:11:14.398Z,58.30
2018-05-02T19:14:00.385Z,58.60
2018-05-02T19:16:27.912Z,59.20
2018-05-02T19:19:13.389Z,59.60
2018-05-02T19:21:40.942Z,59.90
2018-05-02T19:24:08.493Z,60.50
2018-05-02T19:26:36.858Z,61.10
2018-05-02T19:29:04.410Z,60.90
2018-05-02T19:31:51.218Z,61.30
2018-05-02T19:34:18.737Z,61.80
2018-05-02T19:36:46.284Z,62.30
2018-05-02T19:39:15.173Z,65.70
2018-05-02T19:42:00.763Z,64.30
2018-05-02T19:44:29.273Z,64.30
2018-05-02T19:46:56.812Z,64.70
2018-05-02T19:49:24.349Z,65.20
2018-05-02T19:52:10.480Z,65.80
2018-05-02T19:54:38.021Z,65.90
2018-05-02T19:57:05.648Z,65.80
2018-05-02T19:59:33.915Z,66.30
2018-05-02T20:02:19.347Z,65.80
2018-05-02T20:04:46.977Z,66.60
2018-05-02T20:07:32.501Z,67.50
2018-05-02T20:10:18.204Z,67.60
2018-05-02T20:13:04.017Z,68.50
2018-05-02T20:15:31.965Z,69.20
2018-05-02T20:17:59.517Z,69.40
2018-05-02T20:20:27.060Z,69.70
2018-05-02T20:22:55.049Z,70.40
2018-05-02T20:25:22.600Z,70.70
2018-05-02T20:27:50.132Z,71.10
2018-05-02T20:30:18.489Z,71.40
2018-05-02T20:32:46.044Z,71.40
2018-05-02T20:35:13.588Z,72.40
2018-05-02T20:37:41.177Z,72.30
2018-05-02T20:40:08.718Z,72.70
2018-05-02T20:42:36.289Z,73.00
2018-05-02T20:45:03.903Z,73.10
2018-05-02T20:47:31.453Z,73.50
2018-05-02T20:49:58.995Z,73.60
2018-05-02T20:52:30.578Z,74.60
2018-05-02T20:54:58.026Z,74.60
2018-05-02T20:57:25.477Z,75.60
2018-05-02T20:59:53.945Z,75.30
2018-05-02T21:02:22.252Z,76.30
2018-05-02T21:04:49.812Z,75.60
2018-05-02T21:07:18.154Z,76.40
2018-05-02T21:09:45.696Z,76.40
2018-05-02T21:12:13.243Z,76.70
2018-05-02T21:14:40.831Z,77.10
2018-05-02T21:17:08.380Z,77.30
2018-05-02T21:19:35.927Z,77.70
2018-05-02T21:22:04.092Z,78.80
2018-05-02T21:24:31.631Z,78.20
2018-05-02T21:26:59.189Z,78.20
2018-05-02T21:29:26.794Z,78.40
2018-05-02T21:31:54.339Z,78.50
2018-05-02T21:34:21.876Z,78.70
2018-05-02T21:36:49.484Z,78.70
2018-05-02T21:39:17.033Z,79.10
2018-05-02T21:41:44.573Z,79.50
2018-05-02T21:44:13.056Z,79.80
2018-05-02T21:46:40.599Z,80.10
2018-05-02T21:49:08.145Z,80.40
2018-05-02T21:51:36.480Z,80.60
2018-05-02T21:54:04.029Z,80.60
2018-05-02T21:56:31.611Z,80.80
2018-05-02T21:58:59.179Z,80.80
2018-05-02T22:01:26.726Z,81.00
2018-05-02T22:03:54.270Z,81.20
2018-05-02T22:06:21.851Z,81.70
2018-05-02T22:08:49.501Z,82.00
2018-05-02T22:11:17.051Z,82.10
2018-05-02T22:13:45.508Z,82.30
2018-05-02T22:16:13.054Z,82.40
2018-05-02T22:18:41.362Z,82.90
2018-05-02T22:21:08.934Z,82.80
2018-05-02T22:23:36.474Z,82.80
2018-05-02T22:26:04.017Z,82.90
2018-05-02T22:28:32.356Z,83.50
2018-05-02T22:30:59.900Z,83.40
2018-05-02T22:33:27.450Z,84.00
2018-05-02T22:35:55.029Z,84.30
2018-05-02T22:38:22.568Z,84.50
2018-05-02T22:40:50.114Z,84.70
2018-05-02T22:43:17.699Z,84.80
2018-05-02T22:45:45.248Z,85.00
2018-05-02T22:48:12.779Z,85.20
2018-05-02T22:50:41.137Z,85.70
2018-05-02T22:53:08.678Z,85.70
2018-05-02T22:55:36.224Z,85.80
2018-05-02T22:58:04.292Z,86.70
2018-05-02T23:00:31.829Z,86.30
2018-05-02T23:02:59.367Z,85.80
2018-05-02T23:05:27.718Z,85.80
2018-05-02T23:07:55.280Z,85.80
2018-05-02T23:10:22.857Z,85.90
2018-05-02T23:12:50.430Z,86.10
2018-05-02T23:15:17.950Z,86.20
2018-05-02T23:17:45.491Z,86.50
2018-05-02T23:20:13.075Z,87.40
2018-05-02T23:22:40.615Z,86.60
2018-05-02T23:25:08.161Z,86.70
2018-05-02T23:27:35.729Z,86.80
2018-05-02T23:30:03.270Z,87.10
2018-05-02T23:32:30.816Z,87.40
2018-05-02T23:34:59.157Z,88.70
2018-05-02T23:37:26.702Z,88.10
2018-05-02T23:39:54.239Z,88.20
2018-05-02T23:42:22.232Z,88.10
2018-05-02T23:44:49.781Z,88.20
2018-05-02T23:47:17.325Z,88.40
2018-05-02T23:49:45.658Z,88.50
2018-05-02T23:52:13.200Z,88.50
2018-05-02T23:54:40.740Z,88.40
2018-05-02T23:57:08.337Z,88.70
2018-05-02T23:59:35.868Z,89.00
